Terminal Aerodrome Forecast
Issued by NWS Wilmington, OH

Current Version | Previous Version | Graphics & Text | Print | Product List | Glossary On
Versions: 1 2 3 4 5 6 7 8 9 10 11 12 13 14 15 16 17 18 19 20 21
000
FTUS41 KILN 212300
TAFCVG
TAF
KCVG 212320Z 2200/2306 29008KT P6SM SCT040
     FM220500 25004KT P6SM SKC
     FM221500 28010KT P6SM SCT040
     FM222200 31010KT P6SM SCT050
     FM230100 VRB04KT P6SM SCT250=

USA.gov is the U.S. government's official web portal to all federal, state and local government web resources and services.